Time;durP1;ratioP1;P1;durP2;ratioP2;P2;SDS_P1;SDS_P2;PMS_P1;PMS_P2;Temp;Humidity;BMP_temperature;BMP_pressure;BME280_temperature;BME280_humidity;BME280_pressure;Samples;Min_cycle;Max_cycle;Signal;HPM_P1;HPM_P2
2022/10/19 00:02:11;;;;;;;6.93;3.23;;;10.10;99.90;;;;;;5060400;28;20539;-83
2022/10/19 00:04:38;;;;;;;4.77;2.90;;;10.10;99.90;;;;;;5059977;28;20964;-82
2022/10/19 00:07:04;;;;;;;7.30;2.77;;;10.00;99.90;;;;;;5060435;28;20446;-83
2022/10/19 00:09:32;;;;;;;3.70;2.17;;;10.00;99.90;;;;;;5060239;28;20838;-84
2022/10/19 00:11:59;;;;;;;7.63;4.40;;;10.10;99.90;;;;;;5060120;28;20490;-84
2022/10/19 00:14:26;;;;;;;4.87;3.20;;;10.10;99.90;;;;;;5060246;28;20959;-82
2022/10/19 00:16:54;;;;;;;7.37;3.20;;;10.10;99.90;;;;;;5059493;28;20567;-81
2022/10/19 00:19:23;;;;;;;7.70;3.03;;;10.10;99.90;;;;;;5058759;28;20513;-82
2022/10/19 00:21:50;;;;;;;4.10;2.53;;;10.10;99.90;;;;;;5058238;28;20570;-82
2022/10/19 00:24:17;;;;;;;6.43;2.77;;;10.10;99.90;;;;;;5059003;28;20459;-82
2022/10/19 00:26:45;;;;;;;5.23;2.97;;;10.00;99.90;;;;;;5059594;28;20449;-82
2022/10/19 00:29:13;;;;;;;7.30;3.60;;;10.10;99.90;;;;;;5059450;28;20451;-85
2022/10/19 00:31:41;;;;;;;5.37;3.10;;;10.10;99.90;;;;;;5058114;28;20509;-84
2022/10/19 00:34:08;;;;;;;5.93;2.73;;;10.00;99.90;;;;;;5062865;28;20453;-83
2022/10/19 00:36:37;;;;;;;9.40;3.43;;;9.90;99.90;;;;;;5078703;28;20496;-83
2022/10/19 00:39:06;;;;;;;7.90;3.70;;;9.90;99.90;;;;;;5074857;28;20482;-84
2022/10/19 00:41:35;;;;;;;4.70;3.13;;;10.00;99.90;;;;;;5064124;28;20470;-83
2022/10/19 00:44:06;;;;;;;6.60;3.30;;;9.90;99.90;;;;;;5061938;28;20970;-83
2022/10/19 00:46:35;;;;;;;7.47;3.50;;;9.80;99.90;;;;;;5058436;28;20446;-84
2022/10/19 00:49:04;;;;;;;6.30;2.80;;;9.90;99.90;;;;;;5056379;28;20465;-83
2022/10/19 00:51:33;;;;;;;10.10;3.83;;;9.90;99.90;;;;;;5064284;28;20466;-84
2022/10/19 00:54:02;;;;;;;12.07;3.40;;;9.80;99.90;;;;;;5059770;28;20573;-84
2022/10/19 00:56:28;;;;;;;8.70;3.53;;;9.80;99.90;;;;;;5075322;28;20537;-82
2022/10/19 00:58:56;;;;;;;6.87;3.67;;;9.80;99.90;;;;;;5069200;28;20459;-84
2022/10/19 01:01:26;;;;;;;4.77;3.37;;;9.80;99.90;;;;;;5056894;28;20864;-84
2022/10/19 01:03:53;;;;;;;6.07;3.53;;;9.80;99.90;;;;;;5056993;28;20454;-85
2022/10/19 01:06:23;;;;;;;5.67;3.30;;;9.70;99.90;;;;;;5035104;28;20955;-85
2022/10/19 01:08:50;;;;;;;6.80;3.30;;;9.70;99.90;;;;;;5047644;28;20451;-84
2022/10/19 01:11:29;;;;;;;6.77;3.30;;;9.70;99.90;;;;;;5054988;28;20490;-84
2022/10/19 01:14:13;;;;;;;4.90;3.30;;;9.70;99.90;;;;;;5055414;28;20443;-85
2022/10/19 01:16:53;;;;;;;8.20;3.40;;;9.60;99.90;;;;;;5056327;28;20873;-84
2022/10/19 01:19:44;;;;;;;6.23;2.87;;;9.50;99.90;;;;;;5076815;28;20502;-83
2022/10/19 01:22:22;;;;;;;5.87;3.30;;;9.50;99.90;;;;;;5054291;28;20469;-84
2022/10/19 01:24:57;;;;;;;6.07;3.47;;;9.60;99.90;;;;;;5055009;28;20461;-84
2022/10/19 01:27:50;;;;;;;5.63;3.20;;;9.60;99.90;;;;;;5053460;28;20505;-84
2022/10/19 01:30:32;;;;;;;6.43;3.83;;;9.50;99.90;;;;;;5058262;28;20483;-84
2022/10/19 01:33:20;;;;;;;5.43;3.33;;;9.60;99.90;;;;;;5054500;28;20958;-84
2022/10/19 01:35:56;;;;;;;4.80;3.80;;;9.50;99.90;;;;;;5054367;28;20453;-84
2022/10/19 01:38:29;;;;;;;6.30;3.47;;;9.30;99.90;;;;;;5055958;28;20484;-85
2022/10/19 01:41:02;;;;;;;6.37;3.00;;;9.40;99.90;;;;;;5039080;28;20992;-83
2022/10/19 01:43:40;;;;;;;6.60;3.50;;;9.30;99.90;;;;;;5055595;28;20460;-82
2022/10/19 01:46:13;;;;;;;6.53;3.53;;;9.30;99.90;;;;;;5055839;28;20452;-81
2022/10/19 01:48:43;;;;;;;6.33;2.80;;;9.20;99.90;;;;;;5055658;28;20443;-84
2022/10/19 01:51:16;;;;;;;4.80;3.27;;;9.20;99.90;;;;;;5053547;28;20475;-85
2022/10/19 01:53:47;;;;;;;5.17;3.20;;;9.30;99.90;;;;;;5055216;28;20463;-83
2022/10/19 01:56:17;;;;;;;4.87;2.67;;;9.30;99.90;;;;;;5055098;28;20818;-84
2022/10/19 01:58:45;;;;;;;5.03;2.70;;;9.30;99.90;;;;;;5054503;28;20492;-84
2022/10/19 02:01:17;;;;;;;6.07;3.07;;;9.30;99.90;;;;;;5056120;28;20496;-83
2022/10/19 02:03:44;;;;;;;5.80;3.20;;;9.30;99.90;;;;;;5054519;28;20572;-83
2022/10/19 02:06:13;;;;;;;4.60;3.40;;;9.20;99.90;;;;;;5054711;28;20460;-84
2022/10/19 02:08:44;;;;;;;6.33;3.67;;;9.20;99.90;;;;;;5053899;28;20472;-84
2022/10/19 02:11:12;;;;;;;21.73;3.70;;;9.20;99.90;;;;;;5040033;28;20540;-84
2022/10/19 02:13:40;;;;;;;6.30;3.63;;;9.20;99.90;;;;;;5055395;28;20460;-84
2022/10/19 02:16:13;;;;;;;8.47;4.13;;;9.10;99.90;;;;;;5054417;28;20455;-83
2022/10/19 02:18:45;;;;;;;5.53;4.10;;;9.10;99.90;;;;;;5054405;28;20923;-84
2022/10/19 02:21:12;;;;;;;6.83;3.30;;;9.10;99.90;;;;;;5055949;28;20469;-83
2022/10/19 02:23:39;;;;;;;7.97;3.27;;;9.10;99.90;;;;;;5054031;28;20459;-83
2022/10/19 02:26:06;;;;;;;6.87;3.40;;;9.10;99.90;;;;;;5054324;28;20462;-83
2022/10/19 02:28:33;;;;;;;8.20;3.80;;;9.00;99.90;;;;;;5055902;28;20448;-83
2022/10/19 02:31:00;;;;;;;6.10;3.97;;;9.00;99.90;;;;;;5050919;28;20478;-80
2022/10/19 02:33:28;;;;;;;4.53;2.87;;;8.90;99.90;;;;;;5055861;28;20453;-83
2022/10/19 02:35:57;;;;;;;12.73;4.30;;;8.90;99.90;;;;;;5052239;28;20454;-83
2022/10/19 02:38:25;;;;;;;7.00;3.30;;;9.00;99.90;;;;;;5055230;28;20864;-83
2022/10/19 02:40:59;;;;;;;4.40;2.93;;;8.90;99.90;;;;;;5055387;28;20486;-83
2022/10/19 02:43:28;;;;;;;10.00;3.00;;;9.00;99.90;;;;;;5058464;28;20956;-84
2022/10/19 02:46:01;;;;;;;11.17;4.37;;;8.90;99.90;;;;;;5057759;28;20466;-83
2022/10/19 02:48:30;;;;;;;6.53;4.37;;;9.00;99.90;;;;;;5058361;28;20444;-84
2022/10/19 02:50:58;;;;;;;5.93;4.10;;;8.90;99.90;;;;;;5057582;28;20531;-82
2022/10/19 02:53:25;;;;;;;7.30;3.47;;;8.80;99.90;;;;;;5060821;28;20967;-83
2022/10/19 02:55:52;;;;;;;7.03;3.70;;;8.80;99.90;;;;;;5074314;28;20450;-83
2022/10/19 02:58:19;;;;;;;4.90;3.60;;;8.80;99.90;;;;;;5071719;28;20543;-81
2022/10/19 03:00:45;;;;;;;6.77;3.27;;;8.80;99.90;;;;;;5058086;28;20503;-84
2022/10/19 03:03:12;;;;;;;6.23;3.27;;;8.80;99.90;;;;;;5055604;28;20449;-84
2022/10/19 03:05:39;;;;;;;5.67;3.30;;;8.80;99.90;;;;;;5057932;28;20463;-83
2022/10/19 03:08:07;;;;;;;7.73;4.00;;;8.70;99.90;;;;;;5065011;28;20451;-83
2022/10/19 03:10:34;;;;;;;8.37;4.17;;;8.70;99.90;;;;;;5056961;28;20487;-85
2022/10/19 03:13:01;;;;;;;6.60;3.50;;;8.70;99.90;;;;;;5060771;28;20450;-84
2022/10/19 03:15:28;;;;;;;8.93;4.00;;;8.70;99.90;;;;;;5057681;28;20456;-84
2022/10/19 03:17:56;;;;;;;9.60;3.87;;;8.70;99.90;;;;;;5058618;28;20560;-85
2022/10/19 03:20:23;;;;;;;7.00;3.67;;;8.70;99.90;;;;;;5059526;28;20484;-84
2022/10/19 03:22:50;;;;;;;7.10;3.57;;;8.70;99.90;;;;;;5058689;28;20458;-84
2022/10/19 03:25:19;;;;;;;5.50;2.90;;;8.70;99.90;;;;;;5072955;28;20455;-84
2022/10/19 03:27:45;;;;;;;9.30;3.43;;;8.70;99.90;;;;;;5073078;28;20451;-83
2022/10/19 03:30:12;;;;;;;4.83;3.33;;;8.60;99.90;;;;;;5057717;28;20456;-82
2022/10/19 03:32:39;;;;;;;11.33;3.50;;;8.60;99.90;;;;;;5056309;28;20444;-83
2022/10/19 03:35:07;;;;;;;7.37;3.87;;;8.70;99.90;;;;;;5056573;28;20453;-85
2022/10/19 03:37:34;;;;;;;10.23;3.43;;;8.70;99.90;;;;;;5056388;28;20487;-85
2022/10/19 03:40:01;;;;;;;6.07;3.80;;;8.70;99.90;;;;;;5055743;28;20469;-84
2022/10/19 03:42:29;;;;;;;8.23;3.97;;;8.60;99.90;;;;;;5057353;28;20462;-84
2022/10/19 03:44:56;;;;;;;9.10;4.80;;;8.60;99.90;;;;;;5056587;28;20452;-85
2022/10/19 03:47:22;;;;;;;6.00;4.40;;;8.60;99.90;;;;;;5057235;28;20464;-84
2022/10/19 03:49:50;;;;;;;7.97;3.97;;;8.60;99.90;;;;;;5055653;28;20452;-85
2022/10/19 03:52:17;;;;;;;8.27;4.40;;;8.60;99.90;;;;;;5055932;28;20479;-82
2022/10/19 03:54:44;;;;;;;9.10;3.33;;;8.60;99.90;;;;;;5056181;28;20448;-86
2022/10/19 03:57:11;;;;;;;6.57;3.30;;;8.50;99.90;;;;;;5056613;28;20455;-84
2022/10/19 03:59:39;;;;;;;7.73;3.70;;;8.60;99.90;;;;;;5055814;28;20843;-85
2022/10/19 04:02:06;;;;;;;8.20;3.77;;;8.60;99.90;;;;;;5057199;28;20475;-85
2022/10/19 04:04:33;;;;;;;6.70;3.60;;;8.60;99.90;;;;;;5056355;28;20827;-84
2022/10/19 04:07:00;;;;;;;9.43;4.20;;;8.60;99.90;;;;;;5056235;28;20456;-82
2022/10/19 04:09:26;;;;;;;5.23;3.77;;;8.60;99.90;;;;;;5055497;28;20447;-84
2022/10/19 04:11:53;;;;;;;6.60;4.03;;;8.60;99.90;;;;;;5055799;28;20488;-82
2022/10/19 04:14:21;;;;;;;6.27;4.20;;;8.60;99.90;;;;;;5055885;28;20949;-83
2022/10/19 04:16:49;;;;;;;12.73;5.03;;;8.70;99.90;;;;;;5055158;28;20455;-83
2022/10/19 04:19:16;;;;;;;7.00;4.93;;;8.60;99.90;;;;;;5056115;28;20837;-83
2022/10/19 04:21:43;;;;;;;8.80;4.53;;;8.70;99.90;;;;;;5056174;28;20470;-83
2022/10/19 04:24:12;;;;;;;9.30;5.53;;;8.70;99.90;;;;;;5055753;28;20458;-83
2022/10/19 04:26:41;;;;;;;6.77;4.50;;;8.70;99.90;;;;;;5055669;28;20456;-84
2022/10/19 04:29:08;;;;;;;10.40;5.03;;;8.70;99.90;;;;;;5055467;28;20447;-84
2022/10/19 04:31:35;;;;;;;10.07;5.53;;;8.70;99.90;;;;;;5056003;28;20971;-83
2022/10/19 04:34:03;;;;;;;10.80;6.37;;;8.70;99.90;;;;;;5055621;28;20834;-84
2022/10/19 04:36:30;;;;;;;10.53;6.43;;;8.80;99.90;;;;;;5055338;28;20457;-84
2022/10/19 04:38:56;;;;;;;8.90;6.70;;;8.80;99.90;;;;;;5052344;28;21016;-83
2022/10/19 04:41:24;;;;;;;12.53;7.40;;;8.80;99.90;;;;;;5055653;28;20671;-84
2022/10/19 04:43:56;;;;;;;13.20;7.17;;;8.90;99.90;;;;;;5055300;28;20458;-84
2022/10/19 04:46:23;;;;;;;14.70;7.77;;;8.90;99.90;;;;;;5052424;28;20466;-84
2022/10/19 04:48:50;;;;;;;12.53;7.70;;;9.00;99.90;;;;;;5053962;28;20443;-84
2022/10/19 04:51:19;;;;;;;15.87;8.40;;;9.10;99.90;;;;;;5053960;28;20482;-82
2022/10/19 04:53:46;;;;;;;17.37;8.63;;;9.00;99.90;;;;;;5054035;28;20460;-86
2022/10/19 04:56:15;;;;;;;18.67;9.77;;;9.00;99.90;;;;;;5054862;28;20459;-84
2022/10/19 04:58:43;;;;;;;18.30;8.40;;;9.10;99.90;;;;;;5054222;28;20489;-84
2022/10/19 05:01:11;;;;;;;12.80;6.47;;;9.10;99.90;;;;;;5054084;28;20480;-84
2022/10/19 05:03:38;;;;;;;10.60;6.53;;;9.00;99.90;;;;;;5056076;28;20461;-82
2022/10/19 05:06:06;;;;;;;11.50;6.50;;;9.10;99.90;;;;;;5059103;28;20470;-83
2022/10/19 05:08:35;;;;;;;9.90;6.07;;;9.20;99.90;;;;;;5075469;28;20454;-84
2022/10/19 05:11:03;;;;;;;7.77;5.27;;;9.20;99.90;;;;;;5055143;28;20606;-82
2022/10/19 05:13:32;;;;;;;10.50;6.20;;;9.20;99.90;;;;;;5055679;28;20822;-85
2022/10/19 05:15:59;;;;;;;9.87;5.50;;;9.20;99.90;;;;;;5051879;28;20457;-81
2022/10/19 05:18:26;;;;;;;9.50;5.80;;;9.30;99.90;;;;;;5055236;28;20480;-83
2022/10/19 05:21:01;;;;;;;9.27;6.37;;;9.20;99.90;;;;;;5054307;28;20472;-84
2022/10/19 05:23:28;;;;;;;12.87;6.00;;;9.20;99.90;;;;;;5056384;28;20466;-83
2022/10/19 05:26:01;;;;;;;7.90;5.23;;;9.30;99.90;;;;;;5055043;28;20457;-83
2022/10/19 05:28:28;;;;;;;7.40;5.40;;;9.30;99.90;;;;;;5054824;28;20451;-84
2022/10/19 05:30:54;;;;;;;6.90;5.67;;;9.30;99.90;;;;;;5054993;28;20490;-80
2022/10/19 05:33:21;;;;;;;8.80;6.03;;;9.30;99.90;;;;;;5070099;28;20445;-82
2022/10/19 05:35:48;;;;;;;12.53;8.60;;;9.30;99.90;;;;;;5065253;28;20444;-82
2022/10/19 05:38:15;;;;;;;10.43;5.97;;;9.40;99.90;;;;;;5035629;28;20576;-82
2022/10/19 05:40:45;;;;;;;8.37;6.43;;;9.40;99.90;;;;;;5051907;28;20466;-82
2022/10/19 05:43:13;;;;;;;10.20;6.67;;;9.40;99.90;;;;;;5055263;28;21139;-82
2022/10/19 05:45:40;;;;;;;10.67;6.37;;;9.40;99.90;;;;;;5054346;28;20458;-82
2022/10/19 05:48:07;;;;;;;8.00;5.43;;;9.40;99.90;;;;;;5054521;28;20456;-81
2022/10/19 05:50:34;;;;;;;14.03;7.00;;;9.30;99.90;;;;;;5054675;28;20474;-84
2022/10/19 05:53:00;;;;;;;13.33;8.83;;;9.20;99.90;;;;;;5055279;28;20463;-83
2022/10/19 05:55:27;;;;;;;9.60;6.73;;;9.00;99.90;;;;;;5056484;28;20461;-83
2022/10/19 05:57:54;;;;;;;10.00;6.43;;;8.80;99.90;;;;;;5055601;28;20448;-83
2022/10/19 06:00:22;;;;;;;10.77;6.93;;;8.80;99.90;;;;;;5055136;28;21196;-83
2022/10/19 06:02:49;;;;;;;11.33;5.43;;;8.80;99.90;;;;;;5056283;28;20470;-84
2022/10/19 06:05:16;;;;;;;10.13;6.43;;;8.80;99.90;;;;;;5056071;28;20444;-83
2022/10/19 06:07:43;;;;;;;10.53;6.77;;;8.90;99.90;;;;;;5057174;28;20540;-84
2022/10/19 06:10:10;;;;;;;8.10;6.07;;;8.80;99.90;;;;;;5058027;28;20462;-86
2022/10/19 06:12:37;;;;;;;8.03;5.47;;;8.80;99.90;;;;;;5059333;28;20529;-85
2022/10/19 06:15:04;;;;;;;6.90;5.07;;;8.80;99.90;;;;;;5058666;28;20464;-86
2022/10/19 06:17:32;;;;;;;12.03;5.70;;;8.70;99.90;;;;;;5056978;28;20461;-84
2022/10/19 06:19:59;;;;;;;9.00;5.40;;;8.70;99.90;;;;;;5056112;28;20571;-84
2022/10/19 06:22:26;;;;;;;10.67;5.00;;;8.60;99.90;;;;;;5058020;28;20527;-86
2022/10/19 06:24:53;;;;;;;7.63;6.03;;;8.60;99.90;;;;;;5057524;28;20552;-84
2022/10/19 06:27:19;;;;;;;7.17;4.37;;;8.60;99.90;;;;;;5056326;28;20451;-84
2022/10/19 06:29:46;;;;;;;6.70;4.93;;;8.60;99.90;;;;;;5063876;28;20448;-85
2022/10/19 06:32:13;;;;;;;6.03;4.13;;;8.60;99.90;;;;;;5064320;28;20478;-83
2022/10/19 06:34:41;;;;;;;4.90;4.30;;;8.60;99.90;;;;;;5062645;28;20543;-83
2022/10/19 06:37:08;;;;;;;7.40;4.37;;;8.60;99.90;;;;;;5062821;28;20882;-83
2022/10/19 06:39:35;;;;;;;6.73;4.90;;;8.60;99.90;;;;;;5056256;28;20476;-83
2022/10/19 06:42:05;;;;;;;6.80;4.80;;;8.60;99.90;;;;;;5056187;28;20455;-81
2022/10/19 06:44:31;;;;;;;7.23;4.93;;;8.60;99.90;;;;;;5041583;28;20461;-83
2022/10/19 06:46:58;;;;;;;7.53;5.40;;;8.60;99.90;;;;;;5057048;28;20938;-83
2022/10/19 06:49:25;;;;;;;8.47;5.10;;;8.60;99.90;;;;;;5056912;28;20452;-82
2022/10/19 06:51:56;;;;;;;10.03;5.30;;;8.70;99.90;;;;;;5055251;28;20480;-81
2022/10/19 06:54:24;;;;;;;6.93;4.77;;;8.80;99.90;;;;;;5047484;28;20461;-83
2022/10/19 06:56:51;;;;;;;8.87;5.90;;;8.80;99.90;;;;;;5053012;28;20457;-85
2022/10/19 06:59:20;;;;;;;10.27;6.40;;;8.90;99.90;;;;;;5051067;28;20499;-81
2022/10/19 07:01:47;;;;;;;10.60;6.13;;;8.90;99.90;;;;;;5051455;28;20461;-82
2022/10/19 07:04:17;;;;;;;7.57;5.30;;;9.00;99.90;;;;;;5051650;28;21961;-82
2022/10/19 07:06:44;;;;;;;8.03;5.20;;;9.10;99.90;;;;;;5049446;28;20480;-83
2022/10/19 07:09:12;;;;;;;8.63;5.77;;;9.20;99.90;;;;;;5051141;28;20441;-81
2022/10/19 07:11:39;;;;;;;12.00;6.40;;;9.30;99.90;;;;;;5051524;28;20556;-81
2022/10/19 07:14:06;;;;;;;9.80;6.30;;;9.30;99.90;;;;;;5051290;28;20480;-80
2022/10/19 07:16:32;;;;;;;10.93;6.70;;;9.40;99.90;;;;;;5050853;28;20446;-80
2022/10/19 07:19:00;;;;;;;10.70;5.97;;;9.50;99.90;;;;;;5047975;28;21006;-81
2022/10/19 07:21:27;;;;;;;12.20;5.90;;;9.50;99.90;;;;;;5049221;28;20487;-82
2022/10/19 07:23:54;;;;;;;14.60;8.80;;;9.50;99.90;;;;;;5055256;28;20535;-80
2022/10/19 07:26:25;;;;;;;11.17;6.43;;;9.50;99.90;;;;;;5058707;28;20452;-83
2022/10/19 07:28:53;;;;;;;10.10;6.23;;;9.60;99.90;;;;;;5040612;28;20450;-82
2022/10/19 07:31:22;;;;;;;13.53;7.30;;;9.60;99.90;;;;;;5055955;28;20850;-81
2022/10/19 07:33:52;;;;;;;12.27;6.80;;;9.70;99.90;;;;;;5057732;28;20453;-84
2022/10/19 07:36:19;;;;;;;8.37;6.83;;;9.70;99.90;;;;;;5063466;28;20522;-79
2022/10/19 07:38:46;;;;;;;14.93;7.03;;;9.80;99.90;;;;;;5064705;28;20500;-81
2022/10/19 07:41:14;;;;;;;14.70;8.43;;;9.90;99.90;;;;;;5055295;28;20475;-83
2022/10/19 07:43:44;;;;;;;9.43;7.40;;;9.90;99.90;;;;;;5057604;28;20450;-80
2022/10/19 07:46:13;;;;;;;11.07;7.90;;;10.00;99.90;;;;;;5057588;28;20990;-81
2022/10/19 07:48:40;;;;;;;9.27;7.07;;;10.10;99.90;;;;;;5051126;28;20458;-81
2022/10/19 07:51:08;;;;;;;8.90;7.30;;;10.10;99.90;;;;;;5051985;28;20489;-83
2022/10/19 07:53:36;;;;;;;11.03;8.13;;;10.20;99.90;;;;;;5056651;28;20959;-82
2022/10/19 07:56:04;;;;;;;11.47;7.23;;;10.30;99.90;;;;;;5056567;28;21152;-80
2022/10/19 07:58:31;;;;;;;11.93;7.83;;;10.30;99.90;;;;;;5055697;28;20447;-81
2022/10/19 08:01:01;;;;;;;14.53;8.13;;;10.40;99.90;;;;;;5056127;28;20486;-82
2022/10/19 08:03:28;;;;;;;10.40;8.80;;;10.60;99.90;;;;;;5056272;28;20462;-82
2022/10/19 08:05:59;;;;;;;10.17;7.57;;;10.60;99.90;;;;;;5053032;28;21814;-84
2022/10/19 08:08:26;;;;;;;18.20;8.33;;;10.70;99.90;;;;;;5054299;28;20451;-81
2022/10/19 08:10:53;;;;;;;14.73;7.60;;;10.70;99.90;;;;;;5055471;28;20480;-80
2022/10/19 08:13:20;;;;;;;19.70;9.20;;;10.80;99.90;;;;;;5054315;28;20966;-82
2022/10/19 08:15:47;;;;;;;16.70;8.43;;;10.80;99.90;;;;;;5055702;28;20454;-82
2022/10/19 08:18:15;;;;;;;13.70;7.80;;;10.90;99.90;;;;;;5052008;28;20453;-80
2022/10/19 08:20:43;;;;;;;13.20;8.57;;;11.00;99.90;;;;;;5054474;28;20490;-83
2022/10/19 08:23:10;;;;;;;18.97;7.40;;;11.00;99.90;;;;;;5053742;28;21893;-82
2022/10/19 08:25:37;;;;;;;11.50;7.63;;;11.00;99.90;;;;;;5049003;28;20981;-83
2022/10/19 08:28:04;;;;;;;8.87;7.00;;;11.10;99.90;;;;;;5050979;28;20446;-81
2022/10/19 08:30:30;;;;;;;9.90;7.87;;;11.10;99.90;;;;;;5053768;28;20464;-83
2022/10/19 08:32:57;;;;;;;8.77;5.80;;;11.20;99.90;;;;;;5054308;28;20440;-80
2022/10/19 08:35:27;;;;;;;15.43;7.50;;;11.20;99.90;;;;;;5049853;28;20523;-81
2022/10/19 08:37:54;;;;;;;9.77;6.17;;;11.20;99.90;;;;;;5046475;28;20438;-81
2022/10/19 08:40:24;;;;;;;9.00;5.97;;;11.30;99.90;;;;;;5053744;28;20496;-83
2022/10/19 08:43:02;;;;;;;7.90;6.10;;;11.30;99.90;;;;;;5053509;28;20451;-82
2022/10/19 08:45:41;;;;;;;11.53;5.27;;;11.40;99.90;;;;;;5050348;28;20543;-80
2022/10/19 08:48:28;;;;;;;11.60;5.70;;;11.50;99.90;;;;;;5051114;28;20446;-82
2022/10/19 08:50:58;;;;;;;10.43;6.07;;;11.60;99.90;;;;;;5052463;28;20485;-80
2022/10/19 08:53:33;;;;;;;8.83;6.13;;;11.60;99.90;;;;;;5051852;28;20463;-81
2022/10/19 08:56:24;;;;;;;7.10;4.83;;;11.70;99.90;;;;;;5053618;28;20460;-84
2022/10/19 08:59:08;;;;;;;8.77;5.27;;;11.80;99.90;;;;;;5050958;28;20547;-80
2022/10/19 09:01:43;;;;;;;18.70;5.40;;;11.90;99.90;;;;;;5057195;28;20460;-81
2022/10/19 09:04:17;;;;;;;8.50;4.50;;;12.00;99.90;;;;;;5055157;28;20476;-81
2022/10/19 09:06:52;;;;;;;13.80;4.60;;;12.10;99.90;;;;;;5054260;28;20465;-82
2022/10/19 09:09:20;;;;;;;8.77;5.10;;;12.10;99.90;;;;;;5038099;28;20964;-81
2022/10/19 09:11:49;;;;;;;15.33;4.63;;;12.20;99.90;;;;;;5054306;28;21010;-83
2022/10/19 09:14:23;;;;;;;7.83;4.23;;;12.30;99.90;;;;;;5054112;28;20455;-82
2022/10/19 09:16:49;;;;;;;10.70;4.70;;;12.30;99.90;;;;;;5051525;28;20453;-81
2022/10/19 09:19:24;;;;;;;7.13;4.00;;;12.40;99.90;;;;;;5048081;28;20455;-83
2022/10/19 09:21:57;;;;;;;11.63;4.03;;;12.50;99.90;;;;;;5072377;28;20466;-83
2022/10/19 09:24:30;;;;;;;5.83;3.53;;;12.50;99.90;;;;;;5052873;28;20452;-81
2022/10/19 09:26:59;;;;;;;11.27;4.20;;;12.50;99.90;;;;;;5055787;28;20832;-84
2022/10/19 09:29:31;;;;;;;8.53;3.70;;;12.60;99.90;;;;;;5058056;28;20437;-82
2022/10/19 09:32:01;;;;;;;8.47;4.00;;;12.70;99.90;;;;;;5066998;28;20523;-81
2022/10/19 09:34:32;;;;;;;9.43;4.80;;;12.70;99.90;;;;;;5066993;28;20451;-82
2022/10/19 09:37:01;;;;;;;9.03;3.80;;;12.80;99.90;;;;;;5069456;28;20440;-81
2022/10/19 09:39:29;;;;;;;7.13;3.73;;;12.90;99.90;;;;;;5067901;28;20496;-82
2022/10/19 09:41:59;;;;;;;16.10;4.10;;;13.00;99.90;;;;;;5067297;28;20471;-81
2022/10/19 09:44:27;;;;;;;6.70;3.43;;;13.00;99.90;;;;;;5067093;28;20450;-85
2022/10/19 09:47:02;;;;;;;7.83;3.60;;;13.10;99.90;;;;;;5056456;28;20464;-82
2022/10/19 09:49:47;;;;;;;5.73;3.13;;;13.10;99.90;;;;;;5055056;28;20460;-81
2022/10/19 09:52:35;;;;;;;7.23;2.67;;;13.20;99.90;;;;;;5055163;28;20478;-85
2022/10/19 09:55:05;;;;;;;4.80;2.60;;;13.30;99.90;;;;;;5053220;28;20458;-82
2022/10/19 09:57:32;;;;;;;6.53;2.70;;;13.30;99.90;;;;;;5058197;28;20831;-81
2022/10/19 09:59:58;;;;;;;5.43;2.10;;;13.30;99.90;;;;;;5048622;28;20518;-82
2022/10/19 10:02:32;;;;;;;3.80;2.10;;;13.40;99.90;;;;;;5052919;28;20445;-81
2022/10/19 10:05:08;;;;;;;3.13;2.07;;;13.50;99.90;;;;;;5048294;28;20463;-81
2022/10/19 10:07:38;;;;;;;8.47;3.20;;;13.60;99.90;;;;;;5054032;28;20957;-80
2022/10/19 10:10:11;;;;;;;5.30;2.47;;;13.60;99.90;;;;;;5047212;28;20458;-81
2022/10/19 10:12:40;;;;;;;6.53;2.67;;;13.80;99.90;;;;;;5054361;28;20440;-83
2022/10/19 10:15:08;;;;;;;5.37;2.17;;;14.00;99.90;;;;;;5057095;28;20455;-82
2022/10/19 10:17:37;;;;;;;7.67;2.43;;;14.20;99.90;;;;;;5055961;28;20462;-83
2022/10/19 10:20:17;;;;;;;5.27;2.70;;;14.60;99.90;;;;;;5052801;28;20490;-85
2022/10/19 10:22:55;;;;;;;7.83;2.13;;;15.20;99.90;;;;;;5058006;28;20451;-82
2022/10/19 10:25:24;;;;;;;6.93;2.00;;;15.90;99.90;;;;;;5054087;28;20520;-81
2022/10/19 10:28:02;;;;;;;5.33;1.80;;;16.40;99.90;;;;;;5051542;28;20447;-82
2022/10/19 10:30:34;;;;;;;6.50;1.63;;;16.90;99.90;;;;;;5053053;28;20472;-82
2022/10/19 10:33:01;;;;;;;7.10;1.90;;;17.30;99.90;;;;;;5049713;28;20447;-82
2022/10/19 10:35:32;;;;;;;5.47;1.90;;;17.80;99.90;;;;;;5053478;28;20459;-82
2022/10/19 10:38:14;;;;;;;6.43;2.13;;;18.10;99.90;;;;;;5061323;28;20557;-86
2022/10/19 10:40:49;;;;;;;3.20;2.13;;;18.50;99.90;;;;;;5058787;28;20570;-81
2022/10/19 10:43:18;;;;;;;4.37;1.77;;;18.70;99.90;;;;;;5060134;28;20477;-83
2022/10/19 10:45:48;;;;;;;8.37;2.20;;;19.00;99.90;;;;;;5059908;28;20958;-83
2022/10/19 10:48:24;;;;;;;4.10;1.43;;;19.20;99.90;;;;;;5054205;28;20834;-83
2022/10/19 10:50:51;;;;;;;7.67;1.90;;;19.30;99.90;;;;;;5057770;28;20481;-84
2022/10/19 10:53:42;;;;;;;5.03;1.57;;;19.60;99.90;;;;;;5056096;28;20450;-83
2022/10/19 10:56:22;;;;;;;4.90;1.33;;;19.80;99.90;;;;;;5058412;28;20478;-83
2022/10/19 10:58:54;;;;;;;4.47;1.67;;;20.00;99.90;;;;;;5057504;28;20461;-83
2022/10/19 11:01:23;;;;;;;5.07;1.70;;;19.90;99.90;;;;;;5056900;28;20578;-83
2022/10/19 11:03:56;;;;;;;4.03;1.30;;;20.10;99.90;;;;;;5057394;28;20443;-82
2022/10/19 11:06:25;;;;;;;3.90;1.60;;;20.20;99.90;;;;;;5058061;28;20439;-82
2022/10/19 11:09:03;;;;;;;6.53;1.73;;;20.50;99.90;;;;;;5053367;28;20827;-82
2022/10/19 11:11:34;;;;;;;5.60;1.70;;;21.10;99.90;;;;;;5056838;28;20519;-81
2022/10/19 11:14:18;;;;;;;4.17;1.87;;;21.60;99.90;;;;;;5056940;28;20494;-81
2022/10/19 11:16:49;;;;;;;5.10;1.90;;;21.80;99.90;;;;;;5056964;28;20825;-82
2022/10/19 11:19:21;;;;;;;9.33;2.63;;;22.00;99.90;;;;;;5057416;28;20447;-80
2022/10/19 11:21:57;;;;;;;5.30;1.80;;;22.20;99.90;;;;;;5058211;28;20999;-83
2022/10/19 11:24:37;;;;;;;3.57;1.90;;;22.40;99.90;;;;;;5062737;28;20450;-82
2022/10/19 11:27:17;;;;;;;4.80;1.80;;;22.40;99.90;;;;;;5065906;28;20436;-82
2022/10/19 11:29:56;;;;;;;5.60;1.93;;;22.50;99.90;;;;;;5067517;28;20462;-81
2022/10/19 11:32:29;;;;;;;4.17;1.97;;;22.60;99.90;;;;;;5054577;28;20446;-82
2022/10/19 11:35:12;;;;;;;5.83;1.93;;;22.40;99.90;;;;;;5065028;28;20456;-83
2022/10/19 11:37:47;;;;;;;4.03;2.00;;;22.60;99.90;;;;;;5069517;28;20974;-82
2022/10/19 11:40:27;;;;;;;4.27;2.07;;;22.40;99.90;;;;;;5058630;28;20471;-82
2022/10/19 11:43:03;;;;;;;5.83;1.90;;;23.00;99.90;;;;;;5057392;28;20457;-83
2022/10/19 11:45:42;;;;;;;4.30;1.60;;;23.50;99.90;;;;;;5057152;28;20913;-84
2022/10/19 11:48:39;;;;;;;5.47;2.00;;;23.90;99.90;;;;;;5057697;28;20439;-82
2022/10/19 11:51:11;;;;;;;4.43;1.77;;;24.10;99.90;;;;;;5056449;28;20468;-81
2022/10/19 11:53:47;;;;;;;5.73;2.57;;;24.60;99.90;;;;;;5057793;28;20821;-81
2022/10/19 11:56:20;;;;;;;5.53;1.70;;;24.60;99.90;;;;;;5056407;28;20458;-80
2022/10/19 11:58:59;;;;;;;5.20;1.57;;;24.70;99.90;;;;;;5055232;28;20449;-80
2022/10/19 12:01:41;;;;;;;4.37;1.50;;;25.00;99.90;;;;;;5058683;28;20502;-79
2022/10/19 12:04:44;;;;;;;4.83;1.70;;;24.60;99.90;;;;;;5057000;28;20908;-79
2022/10/19 12:07:34;;;;;;;8.00;1.60;;;24.50;99.90;;;;;;5023207;28;20919;-83
2022/10/19 12:10:11;;;;;;;5.77;2.30;;;24.20;99.90;;;;;;5056161;28;20432;-83
2022/10/19 12:12:47;;;;;;;15.27;4.17;;;24.00;99.90;;;;;;5056059;28;20931;-79
2022/10/19 12:15:22;;;;;;;6.43;1.90;;;23.90;99.90;;;;;;5057838;28;20444;-81
2022/10/19 12:17:51;;;;;;;3.40;1.40;;;24.10;99.90;;;;;;5057297;28;20497;-80
2022/10/19 12:20:26;;;;;;;6.20;2.10;;;24.00;99.90;;;;;;5056320;28;20487;-82
2022/10/19 12:22:53;;;;;;;5.07;1.23;;;23.80;99.90;;;;;;5081387;22;20940;-78
2022/10/19 12:25:20;;;;;;;3.37;1.40;;;23.60;99.90;;;;;;5045131;28;20442;-80
2022/10/19 12:27:50;;;;;;;5.47;1.30;;;23.60;99.90;;;;;;5056396;28;20448;-78
2022/10/19 12:30:20;;;;;;;3.90;1.37;;;23.40;99.90;;;;;;5056390;28;20447;-78
2022/10/19 12:33:15;;;;;;;4.33;1.10;;;23.50;99.90;;;;;;5056807;28;20476;-79
2022/10/19 12:36:01;;;;;;;3.40;1.53;;;23.50;99.90;;;;;;5056477;28;20436;-78
2022/10/19 12:38:39;;;;;;;3.13;1.10;;;23.60;99.90;;;;;;5057566;28;20834;-78
2022/10/19 12:41:10;;;;;;;4.03;1.40;;;23.80;99.90;;;;;;5056957;28;20467;-78
2022/10/19 12:43:51;;;;;;;5.07;1.27;;;24.00;99.90;;;;;;5056760;28;20472;-80
2022/10/19 12:46:26;;;;;;;4.00;1.30;;;24.50;99.90;;;;;;5056089;28;20451;-79
2022/10/19 12:49:30;;;;;;;3.43;1.60;;;24.70;99.90;;;;;;5056684;28;20439;-78
2022/10/19 12:51:59;;;;;;;3.13;1.13;;;24.90;99.90;;;;;;5056655;28;20991;-79
2022/10/19 12:54:28;;;;;;;5.10;1.40;;;25.20;99.90;;;;;;5056332;28;20952;-80
2022/10/19 12:56:58;;;;;;;3.83;1.57;;;25.50;99.90;;;;;;5056326;28;20451;-78
2022/10/19 12:59:29;;;;;;;5.30;2.30;;;25.60;99.90;;;;;;5055745;28;20458;-78
2022/10/19 13:01:57;;;;;;;4.10;1.30;;;25.50;98.30;;;;;;5056164;28;21074;-79
2022/10/19 13:04:27;;;;;;;3.40;1.20;;;25.50;98.60;;;;;;5056422;28;20479;-79
2022/10/19 13:07:01;;;;;;;4.20;1.03;;;25.70;98.50;;;;;;5040158;28;20456;-79
2022/10/19 13:09:32;;;;;;;3.87;1.40;;;25.60;97.20;;;;;;5036631;28;20460;-78